createdAt,value
2018-12-13T00:00:17.111Z,95358.26
2018-12-13T00:02:45.470Z,95358.45
2018-12-13T00:05:14.326Z,95335.77
2018-12-13T00:07:42.936Z,95357.09
2018-12-13T00:10:11.426Z,95356.35
2018-12-13T00:12:39.914Z,95364.35
2018-12-13T00:15:08.593Z,95352.15
2018-12-13T00:17:37.520Z,95361.86
2018-12-13T00:20:06.472Z,95362.27
2018-12-13T00:22:34.869Z,95359.77
2018-12-13T00:25:03.102Z,95352.55
2018-12-13T00:27:31.749Z,95353.88
2018-12-13T00:30:00.064Z,95354.82
2018-12-13T00:32:28.403Z,95357.69
2018-12-13T00:34:56.899Z,95364.34
2018-12-13T00:37:25.379Z,95356.16
2018-12-13T00:39:53.958Z,95360.92
2018-12-13T00:42:22.561Z,95362.06
2018-12-13T00:44:50.843Z,95361.50
2018-12-13T00:47:19.334Z,95371.59
2018-12-13T00:49:47.798Z,95361.48
2018-12-13T00:52:16.063Z,95370.27
2018-12-13T00:54:44.441Z,95367.20
2018-12-13T00:57:12.700Z,95365.09
2018-12-13T00:59:41.208Z,95363.00
2018-12-13T01:02:09.630Z,95359.37
2018-12-13T01:04:38.665Z,95372.50
2018-12-13T01:07:06.926Z,95366.22
2018-12-13T01:09:35.208Z,95363.14
2018-12-13T01:12:03.567Z,95364.63
2018-12-13T01:14:31.994Z,95362.16
2018-12-13T01:17:00.378Z,95354.73
2018-12-13T01:19:28.656Z,95351.72
2018-12-13T01:21:57.222Z,95364.61
2018-12-13T01:24:25.562Z,95357.95
2018-12-13T01:26:54.172Z,95363.09
2018-12-13T01:29:22.794Z,95365.05
2018-12-13T01:31:51.136Z,95365.98
2018-12-13T01:34:19.606Z,95370.72
2018-12-13T01:36:52.420Z,95370.80
2018-12-13T01:39:18.503Z,95363.69
2018-12-13T01:41:46.991Z,95373.62
2018-12-13T01:44:15.315Z,95369.27
2018-12-13T01:46:44.544Z,95367.98
2018-12-13T01:49:13.025Z,95373.09
2018-12-13T01:51:41.295Z,95365.84
2018-12-13T01:54:09.477Z,95375.95
2018-12-13T01:56:37.925Z,95363.91
2018-12-13T01:59:06.280Z,95363.92
2018-12-13T02:01:34.571Z,95366.57
2018-12-13T02:04:02.893Z,95363.11
2018-12-13T02:06:34.529Z,95364.65
2018-12-13T02:09:04.551Z,95365.81
2018-12-13T02:11:33.051Z,95371.55
2018-12-13T02:14:01.852Z,95372.27
2018-12-13T02:16:30.201Z,95366.55
2018-12-13T02:18:58.685Z,95359.28
2018-12-13T02:21:27.235Z,95361.53
2018-12-13T02:23:55.680Z,95354.50
2018-12-13T02:26:24.052Z,95363.45
2018-12-13T02:28:52.533Z,95353.89
2018-12-13T02:31:21.021Z,95349.42
2018-12-13T02:33:49.434Z,95355.02
2018-12-13T02:36:17.976Z,95349.84
2018-12-13T02:38:46.250Z,95341.09
2018-12-13T02:41:14.612Z,95354.39
2018-12-13T02:43:42.968Z,95347.56
2018-12-13T02:46:11.361Z,95348.32
2018-12-13T02:48:39.764Z,95348.52
2018-12-13T02:51:08.023Z,95346.05
2018-12-13T02:53:36.539Z,95354.05
2018-12-13T02:56:04.894Z,95342.82
2018-12-13T02:58:33.298Z,95341.84
2018-12-13T03:01:01.772Z,95344.53
2018-12-13T03:03:30.084Z,95355.14
2018-12-13T03:05:58.469Z,95350.23
2018-12-13T03:08:27.240Z,95356.32
2018-12-13T03:10:55.971Z,95365.84
2018-12-13T03:13:24.442Z,95363.92
2018-12-13T03:15:52.907Z,95355.91
2018-12-13T03:18:21.406Z,95358.25
2018-12-13T03:20:49.825Z,95363.00
2018-12-13T03:23:18.193Z,95367.73
2018-12-13T03:25:46.876Z,95372.46
2018-12-13T03:28:15.156Z,95370.73
2018-12-13T03:30:43.493Z,95362.40
2018-12-13T03:33:11.966Z,95364.91
2018-12-13T03:35:40.489Z,95363.34
2018-12-13T03:38:08.770Z,95367.56
2018-12-13T03:40:37.519Z,95365.47
2018-12-13T03:43:05.938Z,95374.73
2018-12-13T03:45:34.348Z,95364.65
2018-12-13T03:48:03.026Z,95366.73
2018-12-13T03:50:32.299Z,95355.91
2018-12-13T03:53:00.797Z,95361.63
2018-12-13T03:55:29.712Z,95350.38
2018-12-13T03:57:58.578Z,95354.36
2018-12-13T04:00:27.071Z,95347.91
2018-12-13T04:02:55.736Z,95354.36
2018-12-13T04:05:24.530Z,95351.58
2018-12-13T04:07:53.346Z,95363.19
2018-12-13T04:10:22.027Z,95360.50
2018-12-13T04:12:50.347Z,95360.64
2018-12-13T04:15:18.747Z,95359.59
2018-12-13T04:17:47.568Z,95361.50
2018-12-13T04:20:16.302Z,95361.92
2018-12-13T04:22:45.094Z,95356.48
2018-12-13T04:25:13.606Z,95363.70
2018-12-13T04:27:42.172Z,95362.62
2018-12-13T04:30:10.878Z,95370.10
2018-12-13T04:32:39.253Z,95372.02
2018-12-13T04:35:07.536Z,95372.84
2018-12-13T04:37:35.969Z,95365.55
2018-12-13T04:40:04.689Z,95366.56
2018-12-13T04:42:33.275Z,95365.00
2018-12-13T04:45:01.896Z,95368.94
2018-12-13T04:47:30.522Z,95372.02
2018-12-13T04:49:58.908Z,95374.61
2018-12-13T04:52:27.925Z,95366.58
2018-12-13T04:54:56.410Z,95374.39
2018-12-13T04:57:24.928Z,95377.05
2018-12-13T04:59:55.040Z,95379.39
2018-12-13T05:02:23.445Z,95378.38
2018-12-13T05:04:51.756Z,95376.02
2018-12-13T05:07:20.216Z,95380.91
2018-12-13T05:09:48.574Z,95372.33
2018-12-13T05:12:17.025Z,95382.77
2018-12-13T05:14:45.515Z,95386.53
2018-12-13T05:17:14.516Z,95382.45
2018-12-13T05:19:42.880Z,95378.41
2018-12-13T05:22:11.993Z,95383.84
2018-12-13T05:24:40.461Z,95389.63
2018-12-13T05:27:08.989Z,95386.88
2018-12-13T05:29:37.595Z,95383.72
2018-12-13T05:32:06.161Z,95390.95
2018-12-13T05:34:34.715Z,95388.03
2018-12-13T05:37:03.259Z,95401.05
2018-12-13T05:39:31.669Z,95401.00
2018-12-13T05:41:59.968Z,95389.98
2018-12-13T05:44:28.416Z,95400.71
2018-12-13T05:46:57.085Z,95390.23
2018-12-13T05:49:25.706Z,95399.75
2018-12-13T05:51:54.355Z,95402.61
2018-12-13T05:54:23.040Z,95404.74
2018-12-13T05:56:51.526Z,95405.16
2018-12-13T05:59:19.879Z,95412.27
2018-12-13T06:01:49.186Z,95403.34
2018-12-13T06:04:17.484Z,95395.61
2018-12-13T06:06:45.972Z,95403.22
2018-12-13T06:09:14.293Z,95399.10
2018-12-13T06:11:42.796Z,95406.53
2018-12-13T06:14:11.110Z,95395.23
2018-12-13T06:16:39.472Z,95405.25
2018-12-13T06:19:07.907Z,95406.83
2018-12-13T06:21:36.966Z,95403.98
2018-12-13T06:24:05.709Z,95407.95
2018-12-13T06:26:34.322Z,95399.41
2018-12-13T06:29:02.975Z,95407.95
2018-12-13T06:31:31.404Z,95411.20
2018-12-13T06:33:59.768Z,95400.96
2018-12-13T06:36:28.191Z,95406.06
2018-12-13T06:38:56.671Z,95394.19
2018-12-13T06:41:25.339Z,95396.08
2018-12-13T06:43:54.419Z,95405.73
2018-12-13T06:46:24.144Z,95398.87
2018-12-13T06:48:53.572Z,95405.56
2018-12-13T06:51:23.295Z,95406.89
2018-12-13T06:53:51.844Z,95397.58
2018-12-13T06:56:20.234Z,95394.23
2018-12-13T06:58:48.876Z,95400.38
2018-12-13T07:01:17.455Z,95397.50
2018-12-13T07:03:45.864Z,95402.30
2018-12-13T07:06:14.438Z,95398.69
2018-12-13T07:08:42.818Z,95401.73
2018-12-13T07:11:11.328Z,95396.98
2018-12-13T07:13:39.862Z,95393.92
2018-12-13T07:16:08.419Z,95394.86
2018-12-13T07:18:37.092Z,95393.78
2018-12-13T07:21:06.140Z,95399.34
2018-12-13T07:23:34.659Z,95403.17
2018-12-13T07:26:04.058Z,95395.91
2018-12-13T07:28:32.719Z,95394.00
2018-12-13T07:31:01.031Z,95398.16
2018-12-13T07:33:29.542Z,95398.90
2018-12-13T07:35:57.974Z,95405.20
2018-12-13T07:38:26.550Z,95412.89
2018-12-13T07:40:55.184Z,95406.00
2018-12-13T07:43:23.870Z,95411.55
2018-12-13T07:45:52.322Z,95408.91
2018-12-13T07:48:23.996Z,95402.05
2018-12-13T07:50:52.643Z,95402.06
2018-12-13T07:53:20.957Z,95393.12
2018-12-13T07:55:49.918Z,95393.65
2018-12-13T07:58:18.377Z,95395.75
2018-12-13T08:00:46.683Z,95393.30
2018-12-13T08:03:15.643Z,95391.58
2018-12-13T08:05:44.710Z,95396.13
2018-12-13T08:08:13.184Z,95395.91
2018-12-13T08:10:41.674Z,95393.34
2018-12-13T08:13:10.571Z,95390.18
2018-12-13T08:15:38.953Z,95392.61
2018-12-13T08:18:07.614Z,95397.80
2018-12-13T08:20:36.154Z,95386.33
2018-12-13T08:23:04.544Z,95397.50
2018-12-13T08:25:33.268Z,95383.08
2018-12-13T08:28:02.351Z,95388.00
2018-12-13T08:30:30.918Z,95386.70
2018-12-13T08:32:59.409Z,95389.16
2018-12-13T08:35:27.824Z,95385.78
2018-12-13T08:37:56.327Z,95384.27
2018-12-13T08:40:24.726Z,95391.86
2018-12-13T08:42:53.448Z,95384.66
2018-12-13T08:45:21.807Z,95389.08
2018-12-13T08:47:50.384Z,95393.85
2018-12-13T08:50:18.910Z,95382.02
2018-12-13T08:52:47.684Z,95380.47
2018-12-13T08:55:16.215Z,95377.34
2018-12-13T08:57:44.648Z,95377.20
2018-12-13T09:00:13.263Z,95380.11
2018-12-13T09:02:41.749Z,95385.81
2018-12-13T09:05:11.136Z,95372.27
2018-12-13T09:07:40.861Z,95372.48
2018-12-13T09:10:10.434Z,95367.14
2018-12-13T09:12:39.302Z,95367.34
2018-12-13T09:15:07.999Z,95362.91
2018-12-13T09:17:36.895Z,95359.86
2018-12-13T09:20:05.964Z,95357.98
2018-12-13T09:22:34.457Z,95360.23
2018-12-13T09:25:03.252Z,95352.50
2018-12-13T09:27:31.916Z,95351.49
2018-12-13T09:30:01.163Z,95351.20
2018-12-13T09:32:30.551Z,95350.81
2018-12-13T09:34:59.267Z,95343.95
2018-12-13T09:37:28.072Z,95341.77
2018-12-13T09:39:56.843Z,95335.95
2018-12-13T09:42:25.745Z,95339.78
2018-12-13T09:44:54.564Z,95326.73
2018-12-13T09:47:23.237Z,95324.23
2018-12-13T09:49:51.743Z,95316.95
2018-12-13T09:52:20.387Z,95314.20
2018-12-13T09:54:48.837Z,95312.35
2018-12-13T09:57:17.251Z,95308.53
2018-12-13T09:59:45.561Z,95299.78
2018-12-13T10:02:13.880Z,95294.69
2018-12-13T10:04:42.376Z,95295.31
2018-12-13T10:07:10.736Z,95308.16
2018-12-13T10:09:39.168Z,95305.94
2018-12-13T10:12:07.540Z,95300.58
2018-12-13T10:14:36.001Z,95301.38
2018-12-13T10:17:04.427Z,95291.54
2018-12-13T10:19:33.134Z,95294.39
2018-12-13T10:22:01.595Z,95292.73
2018-12-13T10:24:30.229Z,95292.09
2018-12-13T10:26:58.668Z,95289.70
2018-12-13T10:29:27.004Z,95285.75
2018-12-13T10:31:57.130Z,95275.84
2018-12-13T10:34:28.734Z,95262.83
2018-12-13T10:36:57.105Z,95259.31
2018-12-13T10:39:25.722Z,95254.35
2018-12-13T10:41:54.265Z,95260.91
2018-12-13T10:44:28.416Z,95259.25
2018-12-13T10:46:59.274Z,95248.19
2018-12-13T10:49:28.027Z,95247.38
2018-12-13T10:51:56.511Z,95235.88
2018-12-13T10:54:25.074Z,95237.94
2018-12-13T10:56:53.907Z,95243.43
2018-12-13T10:59:22.424Z,95242.02
2018-12-13T11:01:56.167Z,95233.52
2018-12-13T11:04:24.899Z,95223.40
2018-12-13T11:06:53.660Z,95229.77
2018-12-13T11:09:22.046Z,95222.41
2018-12-13T11:11:51.331Z,95221.28
2018-12-13T11:14:19.844Z,95224.84
2018-12-13T11:16:48.443Z,95217.02
2018-12-13T11:19:19.014Z,95213.24
2018-12-13T11:21:47.855Z,95219.44
2018-12-13T11:24:16.427Z,95211.00
2018-12-13T11:26:45.360Z,95217.25
2018-12-13T11:29:28.011Z,95206.72
2018-12-13T11:31:56.520Z,95209.29
2018-12-13T11:34:25.547Z,95197.41
2018-12-13T11:36:54.319Z,95198.22
2018-12-13T11:39:23.281Z,95196.27
2018-12-13T11:41:51.739Z,95196.27
2018-12-13T11:44:20.265Z,95193.97
2018-12-13T11:46:48.858Z,95202.36
2018-12-13T11:49:17.273Z,95192.13
2018-12-13T11:51:46.602Z,95193.69
2018-12-13T11:54:48.162Z,95190.12
2018-12-13T11:57:17.186Z,95188.06
2018-12-13T11:59:48.865Z,95189.04
2018-12-13T12:02:23.733Z,95189.73
2018-12-13T12:04:48.617Z,95185.52
2018-12-13T12:07:19.789Z,95190.52
2018-12-13T12:09:48.305Z,95195.73
2018-12-13T12:12:16.545Z,95198.38
2018-12-13T12:14:44.975Z,95196.16
2018-12-13T12:17:14.040Z,95189.14
2018-12-13T12:19:42.713Z,95188.17
2018-12-13T12:22:11.195Z,95183.22
2018-12-13T12:24:40.318Z,95174.51
2018-12-13T12:27:08.705Z,95172.49
2018-12-13T12:29:37.006Z,95176.98
2018-12-13T12:32:06.011Z,95172.80
2018-12-13T12:34:35.447Z,95167.55
2018-12-13T12:37:03.876Z,95162.82
2018-12-13T12:39:32.214Z,95150.33
2018-12-13T12:42:01.982Z,95166.23
2018-12-13T12:44:34.534Z,95170.09
2018-12-13T12:47:03.051Z,95166.74
2018-12-13T12:49:31.446Z,95167.64
2018-12-13T12:51:59.903Z,95165.59
2018-12-13T12:54:29.632Z,95158.59
2018-12-13T12:56:57.932Z,95162.43
2018-12-13T12:59:26.300Z,95171.07
2018-12-13T13:01:54.915Z,95172.22
2018-12-13T13:04:23.504Z,95169.83
2018-12-13T13:06:51.919Z,95173.63
2018-12-13T13:09:24.964Z,95171.84
2018-12-13T13:11:54.319Z,95169.40
2018-12-13T13:14:22.605Z,95173.63
2018-12-13T13:16:50.934Z,95167.57
2018-12-13T13:19:19.510Z,95162.98
2018-12-13T13:21:47.932Z,95163.77
2018-12-13T13:24:17.670Z,95174.16
2018-12-13T13:26:46.867Z,95182.35
2018-12-13T13:29:15.219Z,95177.64
2018-12-13T13:31:43.853Z,95177.19
2018-12-13T13:34:12.827Z,95178.22
2018-12-13T13:36:43.075Z,95186.23
2018-12-13T13:39:11.673Z,95194.97
2018-12-13T13:41:40.773Z,95193.19
2018-12-13T13:44:09.872Z,95201.56
2018-12-13T13:46:38.638Z,95196.60
2018-12-13T13:49:07.350Z,95202.42
2018-12-13T13:51:35.584Z,95200.28
2018-12-13T13:54:04.442Z,95198.98
2018-12-13T13:56:39.357Z,95196.23
2018-12-13T13:59:07.552Z,95198.39
2018-12-13T14:01:35.978Z,95190.12
2018-12-13T14:04:04.623Z,95193.38
2018-12-13T14:06:33.173Z,95196.06
2018-12-13T14:09:01.568Z,95197.57
2018-12-13T14:11:30.087Z,95189.17
2018-12-13T14:13:58.605Z,95194.23
2018-12-13T14:16:27.045Z,95184.95
2018-12-13T14:18:55.675Z,95181.57
2018-12-13T14:21:24.685Z,95192.28
2018-12-13T14:23:53.250Z,95183.07
2018-12-13T14:26:21.463Z,95187.22
2018-12-13T14:28:49.819Z,95188.20
2018-12-13T14:31:18.058Z,95190.41
2018-12-13T14:33:46.578Z,95179.73
2018-12-13T14:36:15.051Z,95184.05
2018-12-13T14:38:43.996Z,95185.99
2018-12-13T14:41:13.910Z,95189.44
2018-12-13T14:43:43.308Z,95199.92
2018-12-13T14:46:11.718Z,95191.72
2018-12-13T14:48:40.290Z,95170.13
2018-12-13T14:51:08.691Z,95191.41
2018-12-13T14:53:37.286Z,95185.77
2018-12-13T14:56:05.762Z,95190.89
2018-12-13T14:58:34.896Z,95183.69
2018-12-13T15:01:03.457Z,95179.88
2018-12-13T15:03:31.667Z,95182.98
2018-12-13T15:06:00.217Z,95179.56
2018-12-13T15:08:28.787Z,95180.20
2018-12-13T15:10:57.118Z,95178.89
2018-12-13T15:13:25.560Z,95171.30
2018-12-13T15:15:53.895Z,95175.58
2018-12-13T15:18:22.469Z,95185.86
2018-12-13T15:20:51.244Z,95178.02
2018-12-13T15:23:20.849Z,95185.70
2018-12-13T15:25:52.058Z,95188.57
2018-12-13T15:28:20.944Z,95187.97
2018-12-13T15:30:49.847Z,95194.87
2018-12-13T15:33:18.296Z,95179.09
2018-12-13T15:35:46.607Z,95190.55
2018-12-13T15:38:14.971Z,95186.09
2018-12-13T15:40:43.499Z,95182.81
2018-12-13T15:43:12.550Z,95189.95
2018-12-13T15:45:41.188Z,95187.67
2018-12-13T15:48:09.737Z,95183.25
2018-12-13T15:50:38.199Z,95171.73
2018-12-13T15:53:06.534Z,95175.58
2018-12-13T15:55:34.787Z,95177.13
2018-12-13T15:58:03.285Z,95171.34
2018-12-13T16:00:31.801Z,95166.14
2018-12-13T16:03:00.411Z,95167.55
2018-12-13T16:05:28.897Z,95164.40
2018-12-13T16:07:57.303Z,95167.77
2018-12-13T16:10:25.744Z,95171.47
2018-12-13T16:12:54.443Z,95177.09
2018-12-13T16:15:22.810Z,95169.04
2018-12-13T16:17:51.152Z,95173.77
2018-12-13T16:20:19.575Z,95171.52
2018-12-13T16:22:48.383Z,95170.15
2018-12-13T16:25:17.086Z,95172.26
2018-12-13T16:27:45.568Z,95171.58
2018-12-13T16:30:14.443Z,95165.41
2018-12-13T16:32:43.219Z,95160.47
2018-12-13T16:35:11.556Z,95165.97
2018-12-13T16:37:40.685Z,95178.81
2018-12-13T16:40:10.416Z,95183.20
2018-12-13T16:42:39.489Z,95186.73
2018-12-13T16:45:16.119Z,95176.34
2018-12-13T16:47:45.154Z,95175.09
2018-12-13T16:50:13.506Z,95178.00
2018-12-13T16:52:41.841Z,95177.16
2018-12-13T16:55:10.144Z,95175.03
2018-12-13T16:57:38.466Z,95170.16
2018-12-13T17:00:08.047Z,95167.80
2018-12-13T17:02:39.810Z,95167.23
2018-12-13T17:05:08.388Z,95166.41
2018-12-13T17:07:36.927Z,95169.73
2018-12-13T17:10:06.440Z,95161.73
2018-12-13T17:12:35.290Z,95171.48
2018-12-13T17:15:04.366Z,95167.55
2018-12-13T17:17:35.393Z,95167.93
2018-12-13T17:20:04.567Z,95167.16
2018-12-13T17:22:32.973Z,95165.84
2018-12-13T17:25:01.193Z,95165.75
2018-12-13T17:27:29.720Z,95160.79
2018-12-13T17:29:58.172Z,95164.55
2018-12-13T17:32:26.582Z,95156.77
2018-12-13T17:34:55.129Z,95157.47
2018-12-13T17:37:23.612Z,95158.48
2018-12-13T17:39:52.017Z,95169.73
2018-12-13T17:42:21.273Z,95171.20
2018-12-13T17:44:52.058Z,95176.80
2018-12-13T17:47:20.812Z,95175.07
2018-12-13T17:49:50.007Z,95169.66
2018-12-13T17:52:19.886Z,95181.17
2018-12-13T17:57:32.727Z,95186.88
2018-12-13T18:00:02.095Z,95187.66
2018-12-13T18:02:30.420Z,95183.01
2018-12-13T18:04:58.994Z,95178.43
2018-12-13T18:07:27.630Z,95192.97
2018-12-13T18:09:56.250Z,95187.98
2018-12-13T18:12:25.574Z,95182.97
2018-12-13T18:14:54.137Z,95173.59
2018-12-13T18:17:22.619Z,95171.09
2018-12-13T18:19:52.912Z,95176.98
2018-12-13T18:22:21.523Z,95174.42
2018-12-13T18:24:50.079Z,95176.50
2018-12-13T18:27:19.201Z,95185.34
2018-12-13T18:29:47.724Z,95180.78
2018-12-13T18:32:16.743Z,95181.34
2018-12-13T18:34:45.315Z,95183.34
2018-12-13T18:37:14.987Z,95174.52
2018-12-13T18:39:43.435Z,95184.32
2018-12-13T18:42:11.805Z,95172.14
2018-12-13T18:44:40.013Z,95179.66
2018-12-13T18:47:09.353Z,95181.94
2018-12-13T18:49:37.913Z,95173.38
2018-12-13T18:52:06.280Z,95181.12
2018-12-13T18:54:34.712Z,95188.16
2018-12-13T18:57:03.244Z,95190.39
2018-12-13T18:59:31.902Z,95184.53
2018-12-13T19:02:00.647Z,95178.84
2018-12-13T19:04:29.294Z,95178.34
2018-12-13T19:06:57.743Z,95192.95
2018-12-13T19:09:26.284Z,95184.32
2018-12-13T19:11:54.554Z,95200.72
2018-12-13T19:14:22.817Z,95210.81
2018-12-13T19:16:51.168Z,95212.35
2018-12-13T19:19:19.917Z,95197.04
2018-12-13T19:21:48.523Z,95179.69
2018-12-13T19:24:16.845Z,95190.38
2018-12-13T19:26:45.233Z,95190.27
2018-12-13T19:29:14.568Z,95191.19
2018-12-13T19:31:42.861Z,95178.44
2018-12-13T19:34:11.302Z,95182.63
2018-12-13T19:36:39.816Z,95175.93
2018-12-13T19:39:09.224Z,95182.72
2018-12-13T19:41:37.802Z,95188.95
2018-12-13T19:44:06.137Z,95190.93
2018-12-13T19:46:34.769Z,95195.50
2018-12-13T19:49:03.471Z,95217.19
2018-12-13T19:51:32.414Z,95222.01
2018-12-13T19:54:00.857Z,95203.04
2018-12-13T19:56:29.263Z,95192.98
2018-12-13T19:59:00.016Z,95187.52
2018-12-13T20:01:32.210Z,95184.25
2018-12-13T20:04:00.543Z,95198.94
2018-12-13T20:06:29.085Z,95211.29
2018-12-13T20:08:57.409Z,95198.82
2018-12-13T20:11:25.869Z,95199.39
2018-12-13T20:13:54.391Z,95194.59
2018-12-13T20:16:23.849Z,95193.15
2018-12-13T20:18:52.595Z,95198.49
2018-12-13T20:21:20.941Z,95201.37
2018-12-13T20:23:50.339Z,95194.36
2018-12-13T20:26:19.247Z,95189.19
2018-12-13T20:28:48.062Z,95194.95
2018-12-13T20:31:16.419Z,95188.67
2018-12-13T20:33:44.894Z,95185.80
2018-12-13T20:36:13.551Z,95184.15
2018-12-13T20:38:42.097Z,95180.32
2018-12-13T20:41:10.431Z,95176.81
2018-12-13T20:43:38.768Z,95166.03
2018-12-13T20:46:07.007Z,95170.70
2018-12-13T20:48:35.308Z,95177.01
2018-12-13T20:51:03.752Z,95173.30
2018-12-13T20:53:32.027Z,95181.02
2018-12-13T20:56:00.593Z,95168.27
2018-12-13T20:58:28.925Z,95175.41
2018-12-13T21:00:57.220Z,95173.68
2018-12-13T21:03:25.654Z,95160.41
2018-12-13T21:05:54.053Z,95168.21
2018-12-13T21:08:22.503Z,95172.11
2018-12-13T21:10:51.024Z,95164.98
2018-12-13T21:13:20.015Z,95167.02
2018-12-13T21:15:48.657Z,95160.37
2018-12-13T21:18:17.115Z,95156.55
2018-12-13T21:20:45.674Z,95161.55
2018-12-13T21:23:14.271Z,95156.43
2018-12-13T21:25:42.792Z,95166.63
2018-12-13T21:28:11.234Z,95168.22
2018-12-13T21:30:39.818Z,95166.20
2018-12-13T21:33:08.098Z,95174.34
2018-12-13T21:35:36.359Z,95162.06
2018-12-13T21:38:04.750Z,95162.80
2018-12-13T21:40:33.077Z,95164.30
2018-12-13T21:43:01.421Z,95169.42
2018-12-13T21:45:29.796Z,95166.71
2018-12-13T21:47:57.976Z,95174.94
2018-12-13T21:50:26.614Z,95167.45
2018-12-13T21:52:55.107Z,95170.81
2018-12-13T21:55:23.448Z,95175.51
2018-12-13T21:57:51.740Z,95180.22
2018-12-13T22:00:20.537Z,95174.84
2018-12-13T22:02:48.895Z,95169.44
2018-12-13T22:05:17.504Z,95166.88
2018-12-13T22:07:45.961Z,95158.09
2018-12-13T22:10:14.259Z,95149.23
2018-12-13T22:12:42.627Z,95162.69
2018-12-13T22:15:12.301Z,95155.96
2018-12-13T22:17:40.927Z,95158.52
2018-12-13T22:20:09.793Z,95161.48
2018-12-13T22:22:38.207Z,95160.42
2018-12-13T22:25:07.804Z,95156.08
2018-12-13T22:27:36.231Z,95151.07
2018-12-13T22:30:05.746Z,95155.91
2018-12-13T22:32:34.236Z,95150.16
2018-12-13T22:35:02.633Z,95152.73
2018-12-13T22:37:31.031Z,95153.38
2018-12-13T22:39:59.333Z,95154.94
2018-12-13T22:42:28.625Z,95154.63
2018-12-13T22:44:57.065Z,95145.28
2018-12-13T22:47:25.702Z,95130.25
2018-12-13T22:49:54.173Z,95139.16
2018-12-13T22:52:22.462Z,95128.06
2018-12-13T22:54:50.847Z,95130.95
2018-12-13T22:57:19.260Z,95121.58
2018-12-13T22:59:47.628Z,95098.34
2018-12-13T23:02:16.125Z,95117.64
2018-12-13T23:04:44.650Z,95128.26
2018-12-13T23:07:13.292Z,95128.56
2018-12-13T23:09:41.909Z,95129.33
2018-12-13T23:12:10.541Z,95150.58
2018-12-13T23:14:38.815Z,95146.44
2018-12-13T23:17:07.570Z,95153.64
2018-12-13T23:19:36.026Z,95151.34
2018-12-13T23:22:04.340Z,95145.70
2018-12-13T23:24:32.693Z,95152.05
2018-12-13T23:27:01.112Z,95155.18
2018-12-13T23:29:29.369Z,95132.98
2018-12-13T23:31:57.605Z,95145.73
2018-12-13T23:34:26.122Z,95146.03
2018-12-13T23:36:54.547Z,95143.91
2018-12-13T23:39:22.802Z,95142.82
2018-12-13T23:41:51.057Z,95141.62
2018-12-13T23:44:19.415Z,95140.98
2018-12-13T23:46:47.643Z,95152.02
2018-12-13T23:49:16.004Z,95147.40
2018-12-13T23:51:44.299Z,95153.17
2018-12-13T23:54:12.772Z,95150.43
2018-12-13T23:56:41.783Z,95158.18
2018-12-13T23:59:10.362Z,95160.85
